Time;durP1;ratioP1;P1;durP2;ratioP2;P2;SDS_P1;SDS_P2;PMS_P1;PMS_P2;Temp;Humidity;BMP_temperature;BMP_pressure;BME280_temperature;BME280_humidity;BME280_pressure;Samples;Min_cycle;Max_cycle;Signal;HPM_P1;HPM_P2
2023/12/02 00:02:12;;;;;;;0.85;0.85;;;;;;;6.05;100.00;99758.22;5005109;28;20151;-76
2023/12/02 00:04:37;;;;;;;2.78;2.67;;;;;;;5.51;100.00;99670.97;5007596;28;20548;-75
2023/12/02 00:07:03;;;;;;;0.47;0.47;;;;;;;5.13;100.00;99637.72;5003355;28;20700;-76
2023/12/02 00:09:28;;;;;;;1.20;1.10;;;;;;;5.81;100.00;99747.59;4994020;28;20505;-78
2023/12/02 00:11:54;;;;;;;1.20;1.10;;;;;;;5.93;100.00;99758.97;5001676;28;20041;-76
2023/12/02 00:14:19;;;;;;;2.70;2.53;;;;;;;6.13;100.00;99768.69;5003069;28;20033;-76
2023/12/02 00:16:45;;;;;;;0.45;0.45;;;;;;;6.14;100.00;99744.41;5006652;28;20125;-76
2023/12/02 00:19:10;;;;;;;9.48;8.88;;;;;;;5.91;100.00;99656.53;5000628;28;20053;-75
2023/12/02 00:21:36;;;;;;;1.10;1.10;;;;;;;5.71;100.00;99661.63;5000224;28;20054;-76
2023/12/02 00:24:02;;;;;;;3.00;2.85;;;;;;;5.18;100.00;99597.00;5004804;28;20053;-76
2023/12/02 00:26:27;;;;;;;2.15;1.02;;;;;;;6.33;100.00;99754.06;4998158;28;20058;-74
2023/12/02 00:28:53;;;;;;;1.80;1.23;;;;;;;5.57;100.00;99650.22;4988313;28;20129;-73
2023/12/02 00:31:18;;;;;;;0.95;0.80;;;;;;;5.92;100.00;99705.16;4999994;28;20098;-74
2023/12/02 00:33:44;;;;;;;7.40;3.45;;;;;;;6.26;100.00;99764.44;5004422;28;20442;-77
2023/12/02 00:36:10;;;;;;;3.17;2.88;;;;;;;5.66;100.00;99649.41;4998202;28;20125;-74
2023/12/02 00:38:35;;;;;;;7.32;6.10;;;;;;;5.98;100.00;99738.19;4998767;28;20140;-74
2023/12/02 00:41:01;;;;;;;2.15;2.05;;;;;;;5.95;100.00;99727.78;5003930;28;20548;-78
2023/12/02 00:43:26;;;;;;;2.30;2.20;;;;;;;5.82;100.00;99692.91;5003790;28;20505;-77
2023/12/02 00:45:52;;;;;;;0.80;0.80;;;;;;;5.70;100.00;99644.22;4993875;28;20046;-79
2023/12/02 00:48:17;;;;;;;1.77;1.67;;;;;;;6.09;100.00;99702.69;5003432;28;20057;-77
2023/12/02 00:50:43;;;;;;;2.17;2.05;;;;;;;6.28;100.00;99736.69;5002782;28;20042;-75
2023/12/02 00:53:08;;;;;;;0.52;0.52;;;;;;;6.28;100.00;99734.94;5003544;28;20108;-76
2023/12/02 00:55:34;;;;;;;12.32;11.70;;;;;;;5.70;100.00;99626.00;5000413;28;20034;-76
2023/12/02 00:57:59;;;;;;;4.75;4.47;;;;;;;5.71;100.00;99672.03;5003938;28;20456;-75
2023/12/02 01:00:25;;;;;;;1.13;1.08;;;;;;;5.35;100.00;99596.28;5003181;28;21018;-75
2023/12/02 01:02:51;;;;;;;2.85;2.65;;;;;;;5.94;100.00;99731.22;5002688;28;20046;-74
2023/12/02 01:05:17;;;;;;;1.45;1.33;;;;;;;5.64;100.00;99623.38;5003797;28;20112;-73
2023/12/02 01:07:42;;;;;;;1.75;1.65;;;;;;;6.20;100.00;99684.50;5001903;28;20420;-76
2023/12/02 01:10:11;;;;;;;1.25;1.15;;;;;;;6.57;100.00;99729.00;4999527;28;20050;-78
2023/12/02 01:12:38;;;;;;;2.35;2.28;;;;;;;6.74;100.00;99723.88;5018804;28;20708;-76
2023/12/02 01:15:04;;;;;;;6.15;5.72;;;;;;;5.96;100.00;99612.31;5003687;28;20460;-76
2023/12/02 01:17:29;;;;;;;2.60;2.40;;;;;;;6.24;100.00;99659.38;5003026;28;20050;-77
2023/12/02 01:19:55;;;;;;;1.48;1.38;;;;;;;6.54;100.00;99702.94;5005763;28;20048;-74
2023/12/02 01:22:20;;;;;;;12.82;11.70;;;;;;;6.62;100.00;99722.09;4994743;28;21151;-78
2023/12/02 01:24:46;;;;;;;4.47;4.22;;;;;;;6.58;100.00;99712.53;5034437;28;20061;-76
2023/12/02 01:27:11;;;;;;;0.57;0.32;;;;;;;6.31;100.00;99659.41;5003443;28;20726;-76
2023/12/02 01:29:37;;;;;;;4.70;4.25;;;;;;;6.12;100.00;99632.38;5001222;28;20552;-75
2023/12/02 01:32:02;;;;;;;3.33;3.20;;;;;;;6.55;100.00;99700.38;5003150;28;20053;-75
2023/12/02 01:34:28;;;;;;;1.85;1.75;;;;;;;6.44;100.00;99694.22;5003280;28;20088;-75
2023/12/02 01:36:53;;;;;;;1.85;1.75;;;;;;;6.59;100.00;99710.78;5002120;28;20050;-78
2023/12/02 01:39:19;;;;;;;2.25;2.15;;;;;;;6.09;100.00;99605.47;4997000;28;20133;-77
2023/12/02 01:41:44;;;;;;;4.97;4.57;;;;;;;6.62;100.00;99690.81;5004208;28;20033;-77
2023/12/02 01:44:13;;;;;;;1.17;1.08;;;;;;;5.87;100.00;99584.47;5001100;28;20034;-75
2023/12/02 01:46:38;;;;;;;1.88;1.77;;;;;;;6.07;100.00;99578.53;5004373;28;20100;-76
2023/12/02 01:49:06;;;;;;;0.47;0.47;;;;;;;6.09;100.00;99577.69;4997330;28;20049;-75
2023/12/02 01:51:32;;;;;;;1.00;1.00;;;;;;;6.07;100.00;99574.19;5000715;28;20045;-76
2023/12/02 01:53:57;;;;;;;1.48;1.38;;;;;;;5.98;100.00;99555.94;4998502;28;20140;-76
2023/12/02 01:56:23;;;;;;;2.17;1.58;;;;;;;6.31;100.00;99583.84;5003312;28;20446;-78
2023/12/02 01:58:49;;;;;;;0.45;0.45;;;;;;;6.80;100.00;99666.56;5003854;28;20033;-78
2023/12/02 02:01:14;;;;;;;2.50;2.30;;;;;;;6.27;100.00;99576.00;4999683;28;20421;-76
2023/12/02 02:03:40;;;;;;;30.25;3.22;;;;;;;6.75;100.00;99648.28;4999984;28;20050;-76
2023/12/02 02:06:08;;;;;;;0.43;0.43;;;;;;;6.28;100.00;99567.34;4998729;28;20049;-77
2023/12/02 02:08:34;;;;;;;6.20;5.78;;;;;;;6.45;100.00;99602.13;5000497;28;20042;-78
2023/12/02 02:11:00;;;;;;;2.35;2.25;;;;;;;6.62;100.00;99615.22;5004309;28;20445;-79
2023/12/02 02:13:26;;;;;;;8.32;7.63;;;;;;;6.79;100.00;99657.00;5028767;28;20341;-77
2023/12/02 02:15:52;;;;;;;7.97;7.47;;;;;;;6.46;100.00;99600.38;4998149;28;20040;-76
2023/12/02 02:18:18;;;;;;;0.40;0.40;;;;;;;6.43;100.00;99587.34;4999437;28;20141;-76
2023/12/02 02:20:51;;;;;;;2.95;2.75;;;;;;;6.02;100.00;99526.44;4999895;28;20077;-77
2023/12/02 02:23:21;;;;;;;1.13;1.02;;;;;;;6.32;100.00;99634.19;5003967;28;20045;-76
2023/12/02 02:25:49;;;;;;;4.03;3.83;;;;;;;6.54;100.00;99663.84;5008538;28;20029;-77
2023/12/02 02:28:27;;;;;;;0.40;0.40;;;;;;;6.47;100.00;99649.06;5005784;28;20046;-78
2023/12/02 02:30:53;;;;;;;0.30;0.30;;;;;;;6.01;100.00;99562.88;5002254;28;20132;-75
2023/12/02 02:33:20;;;;;;;4.25;4.00;;;;;;;6.45;100.00;99642.97;5001958;28;20050;-79
2023/12/02 02:35:47;;;;;;;1.02;1.02;;;;;;;6.29;100.00;99635.06;5003500;28;20644;-78
2023/12/02 02:38:13;;;;;;;1.27;1.20;;;;;;;5.81;100.00;99561.03;5001948;28;20057;-77
2023/12/02 02:40:38;;;;;;;15.65;14.10;;;;;;;6.47;100.00;99668.16;5007264;28;20041;-77
2023/12/02 02:43:04;;;;;;;0.82;0.82;;;;;;;5.84;100.00;99554.97;5006083;28;20056;-77
2023/12/02 02:45:30;;;;;;;0.60;0.60;;;;;;;6.13;100.00;99618.50;5018642;28;20405;-79
2023/12/02 02:47:55;;;;;;;1.40;1.27;;;;;;;6.31;100.00;99648.97;5005588;28;20128;-81
2023/12/02 02:50:21;;;;;;;2.40;2.30;;;;;;;6.22;100.00;99628.09;4999579;28;20257;-78
2023/12/02 02:52:47;;;;;;;11.05;4.22;;;;;;;6.32;100.00;99649.84;5006533;28;20068;-79
2023/12/02 02:55:13;;;;;;;4.28;4.10;;;;;;;5.68;100.00;99543.59;5006126;28;20096;-76
2023/12/02 02:57:39;;;;;;;1.45;1.35;;;;;;;6.40;100.00;99655.97;5002663;28;20053;-78
2023/12/02 03:00:09;;;;;;;1.05;1.05;;;;;;;6.00;100.00;99564.63;5000915;28;20414;-79
2023/12/02 03:02:40;;;;;;;1.65;1.55;;;;;;;6.31;100.00;99625.53;5003297;28;20052;-79
2023/12/02 03:05:06;;;;;;;1.13;1.08;;;;;;;6.50;100.00;99664.69;4995477;28;20034;-82
2023/12/02 03:07:32;;;;;;;4.00;3.80;;;;;;;5.91;100.00;99570.59;5034100;28;20394;-79
2023/12/02 03:10:00;;;;;;;0.32;0.32;;;;;;;5.95;100.00;99552.41;5005649;28;20046;-76
2023/12/02 03:12:26;;;;;;;1.27;1.17;;;;;;;5.09;100.00;99430.53;5005877;28;20041;-79
2023/12/02 03:14:53;;;;;;;3.58;3.30;;;;;;;5.84;100.00;99562.78;5001850;28;20046;-75
2023/12/02 03:17:19;;;;;;;0.43;0.40;;;;;;;6.22;100.00;99624.63;5000639;28;20452;-79
2023/12/02 03:19:47;;;;;;;37.03;12.52;;;;;;;6.43;100.00;99650.75;5007724;28;20152;-76
2023/12/02 03:22:12;;;;;;;0.43;0.43;;;;;;;5.69;100.00;99545.34;5003718;28;20092;-75
2023/12/02 03:24:38;;;;;;;4.45;4.25;;;;;;;6.44;100.00;99665.56;5005274;28;20034;-76
2023/12/02 03:27:05;;;;;;;4.88;4.68;;;;;;;6.22;100.00;99653.28;5005361;28;20045;-75
2023/12/02 03:29:30;;;;;;;1.33;1.23;;;;;;;5.64;100.00;99541.81;5001384;28;20077;-75
2023/12/02 03:31:56;;;;;;;5.43;4.45;;;;;;;5.68;100.00;99543.59;5032641;28;20486;-75
2023/12/02 03:34:21;;;;;;;8.85;8.32;;;;;;;6.05;100.00;99582.88;5005021;28;20053;-76
2023/12/02 03:36:47;;;;;;;5.38;5.15;;;;;;;6.47;100.00;99620.38;5004219;28;20058;-74
2023/12/02 03:39:13;;;;;;;0.98;0.98;;;;;;;6.69;100.00;99655.22;4999192;28;20390;-75
2023/12/02 03:41:42;;;;;;;1.33;1.23;;;;;;;6.51;100.00;99636.03;5005583;28;20038;-75
2023/12/02 03:44:08;;;;;;;10.00;9.32;;;;;;;6.02;100.00;99554.22;4997637;28;20102;-79
2023/12/02 03:46:37;;;;;;;0.52;0.52;;;;;;;6.66;100.00;99650.00;5007444;28;20034;-75
2023/12/02 03:49:04;;;;;;;1.55;1.45;;;;;;;6.06;100.00;99558.56;5002859;28;20082;-76
2023/12/02 03:51:29;;;;;;;13.52;12.55;;;;;;;6.34;100.00;99607.31;5004702;28;20054;-74
2023/12/02 03:53:55;;;;;;;12.85;11.90;;;;;;;6.51;100.00;99643.88;5005283;28;20124;-76
2023/12/02 03:56:21;;;;;;;1.13;0.63;;;;;;;6.28;100.00;99593.41;5003283;28;20038;-77
2023/12/02 03:58:47;;;;;;;0.73;0.73;;;;;;;6.52;100.00;99631.69;5000887;28;20042;-77
2023/12/02 04:01:13;;;;;;;0.90;0.88;;;;;;;6.12;100.00;99537.75;5004873;28;20137;-75
2023/12/02 04:03:39;;;;;;;1.85;1.75;;;;;;;6.47;100.00;99610.84;5005776;28;20038;-75
2023/12/02 04:06:05;;;;;;;1.25;1.17;;;;;;;6.59;100.00;99603.94;5002055;28;20393;-76
2023/12/02 04:08:31;;;;;;;5.07;4.85;;;;;;;6.71;100.00;99628.28;4997713;28;20046;-76
2023/12/02 04:10:57;;;;;;;3.80;3.60;;;;;;;6.13;100.00;99527.34;5005094;28;20038;-78
2023/12/02 04:13:22;;;;;;;6.78;6.45;;;;;;;6.86;100.00;99648.31;4998497;28;20088;-76
2023/12/02 04:15:48;;;;;;;0.77;0.77;;;;;;;6.25;100.00;99567.31;5002710;28;20076;-76
2023/12/02 04:18:13;;;;;;;1.10;1.10;;;;;;;6.78;100.00;99662.19;5004486;28;20100;-76
2023/12/02 04:20:40;;;;;;;2.38;2.28;;;;;;;6.86;100.00;99650.94;5002556;28;20147;-78
2023/12/02 04:23:05;;;;;;;0.55;0.40;;;;;;;6.87;100.00;99617.91;5004786;28;20030;-80
2023/12/02 04:25:31;;;;;;;0.30;0.30;;;;;;;7.01;100.00;99633.56;4998947;28;20039;-76
2023/12/02 04:27:56;;;;;;;2.25;2.15;;;;;;;7.12;100.00;99637.06;5001092;28;20065;-75
2023/12/02 04:30:22;;;;;;;0.55;0.55;;;;;;;6.48;100.00;99529.16;5001517;28;20076;-77
2023/12/02 04:32:47;;;;;;;0.75;0.75;;;;;;;7.08;100.00;99630.97;5004241;28;20616;-76
2023/12/02 04:35:13;;;;;;;1.30;1.25;;;;;;;6.46;100.00;99510.09;5002720;28;20033;-77
2023/12/02 04:37:38;;;;;;;1.50;1.40;;;;;;;6.53;100.00;99530.06;5001245;28;20533;-77
2023/12/02 04:40:11;;;;;;;0.68;0.68;;;;;;;6.64;100.00;99563.09;5002053;28;20065;-77
2023/12/02 04:42:38;;;;;;;3.08;2.70;;;;;;;7.20;100.00;99645.78;4997157;28;20077;-76
2023/12/02 04:45:05;;;;;;;1.27;1.17;;;;;;;6.50;100.00;99535.25;5002729;28;20041;-77
2023/12/02 04:47:31;;;;;;;0.70;0.70;;;;;;;7.14;100.00;99644.03;5004051;28;20111;-75
2023/12/02 04:49:57;;;;;;;1.33;1.23;;;;;;;7.01;100.00;99633.56;5006302;28;20034;-76
2023/12/02 04:52:23;;;;;;;4.00;3.80;;;;;;;7.08;100.00;99646.63;5003961;28;20132;-75
2023/12/02 04:54:49;;;;;;;0.30;0.30;;;;;;;7.05;100.00;99632.72;5000297;28;20137;-76
2023/12/02 04:57:15;;;;;;;0.60;0.60;;;;;;;6.82;100.00;99576.16;5000298;28;20046;-76
2023/12/02 04:59:40;;;;;;;1.27;0.73;;;;;;;6.65;100.00;99552.69;5003375;28;20056;-76
2023/12/02 05:02:06;;;;;;;1.10;0.52;;;;;;;6.69;100.00;99541.38;5004345;28;20036;-76
2023/12/02 05:04:32;;;;;;;0.88;0.85;;;;;;;7.21;100.00;99637.09;5003591;28;20034;-78
2023/12/02 05:06:58;;;;;;;4.03;3.83;;;;;;;7.27;100.00;99642.28;4995472;28;20058;-76
2023/12/02 05:09:23;;;;;;;2.50;2.40;;;;;;;6.68;100.00;99530.97;5001476;28;20775;-75
2023/12/02 05:11:49;;;;;;;0.70;0.70;;;;;;;7.10;100.00;99599.69;5003611;28;20050;-77
2023/12/02 05:14:14;;;;;;;0.30;0.30;;;;;;;7.36;100.00;99628.41;5003118;28;20041;-75
2023/12/02 05:16:43;;;;;;;1.40;1.38;;;;;;;6.82;100.00;99546.63;4995342;28;20397;-76
2023/12/02 05:19:09;;;;;;;1.42;1.33;;;;;;;6.71;100.00;99539.63;5004279;28;20887;-76
2023/12/02 05:21:38;;;;;;;1.77;1.67;;;;;;;6.69;100.00;99528.34;4999392;28;20042;-75
2023/12/02 05:24:04;;;;;;;1.60;1.50;;;;;;;7.14;100.00;99614.44;4998371;28;20049;-78
2023/12/02 05:26:29;;;;;;;3.00;1.58;;;;;;;7.27;100.00;99638.81;5003428;28;20057;-76
2023/12/02 05:28:55;;;;;;;1.15;1.05;;;;;;;6.59;100.00;99521.38;5000502;28;20030;-77
2023/12/02 05:31:21;;;;;;;2.28;2.15;;;;;;;6.90;100.00;99560.53;5001363;28;20042;-76
2023/12/02 05:33:47;;;;;;;1.30;1.10;;;;;;;6.95;100.00;99632.69;5003447;28;20045;-75
2023/12/02 05:36:13;;;;;;;1.95;1.85;;;;;;;6.95;100.00;99632.69;5002572;28;20771;-76
2023/12/02 05:38:38;;;;;;;4.53;4.15;;;;;;;6.93;100.00;99587.50;4998476;28;20038;-77
2023/12/02 05:41:05;;;;;;;1.73;1.63;;;;;;;6.49;100.00;99514.44;5004774;28;20041;-79
2023/12/02 05:43:31;;;;;;;0.40;0.40;;;;;;;6.46;100.00;99502.25;5004619;28;20568;-78
2023/12/02 05:45:56;;;;;;;1.30;1.20;;;;;;;6.89;100.00;99590.09;4994915;28;20046;-74
2023/12/02 05:48:22;;;;;;;3.38;3.17;;;;;;;7.00;100.00;99606.63;4994600;28;20057;-76
2023/12/02 05:50:47;;;;;;;0.82;0.82;;;;;;;6.64;100.00;99545.72;4995116;28;20049;-75
2023/12/02 05:53:13;;;;;;;2.17;1.90;;;;;;;6.50;100.00;99517.00;5006312;28;20060;-76
2023/12/02 05:55:38;;;;;;;0.40;0.40;;;;;;;6.93;100.00;99599.63;5007467;28;20144;-75
2023/12/02 05:58:04;;;;;;;3.22;3.03;;;;;;;6.39;100.00;99529.19;5003635;28;20686;-81
2023/12/02 06:00:29;;;;;;;6.32;5.07;;;;;;;6.69;100.00;99554.41;5004890;28;20053;-76
2023/12/02 06:02:55;;;;;;;0.30;0.30;;;;;;;6.46;100.00;99503.97;5007418;28;20054;-77
2023/12/02 06:05:20;;;;;;;0.60;0.60;;;;;;;6.80;100.00;99601.38;5000385;28;21580;-78
2023/12/02 06:07:46;;;;;;;0.30;0.30;;;;;;;6.51;100.00;99515.31;5006108;28;20077;-78
2023/12/02 06:10:11;;;;;;;2.08;1.98;;;;;;;6.58;100.00;99524.88;5008036;28;20100;-77
2023/12/02 06:12:37;;;;;;;4.85;4.45;;;;;;;6.83;100.00;99562.25;5003687;28;20050;-78
2023/12/02 06:15:03;;;;;;;1.55;1.45;;;;;;;7.12;100.00;99631.88;5002781;28;20050;-77
2023/12/02 06:17:29;;;;;;;0.45;0.45;;;;;;;7.22;100.00;99620.56;5004102;28;20077;-77
2023/12/02 06:19:55;;;;;;;1.20;1.10;;;;;;;6.53;100.00;99513.53;5005347;28;20060;-76
2023/12/02 06:22:20;;;;;;;1.20;1.15;;;;;;;6.81;100.00;99561.38;5003941;28;20073;-76
2023/12/02 06:24:46;;;;;;;0.82;0.82;;;;;;;7.18;100.00;99608.38;5007127;28;20494;-76
2023/12/02 06:27:11;;;;;;;4.03;1.05;;;;;;;6.45;100.00;99478.78;4999976;28;20387;-77
2023/12/02 06:29:37;;;;;;;7.78;7.38;;;;;;;7.19;100.00;99591.88;5003685;28;20619;-78
2023/12/02 06:32:03;;;;;;;0.82;0.82;;;;;;;6.74;100.00;99551.81;4998328;28;20037;-75
2023/12/02 06:34:30;;;;;;;1.90;1.80;;;;;;;6.61;100.00;99496.19;5003781;28;20578;-77
2023/12/02 06:36:55;;;;;;;0.65;0.65;;;;;;;7.24;100.00;99595.34;5003783;28;20045;-76
2023/12/02 06:39:21;;;;;;;2.60;2.42;;;;;;;7.12;100.00;99583.16;5000168;28;20603;-78
2023/12/02 06:41:46;;;;;;;0.55;0.55;;;;;;;6.59;100.00;99466.66;4996404;28;20072;-76
2023/12/02 06:44:12;;;;;;;0.45;0.45;;;;;;;6.76;100.00;99490.97;5002819;28;20061;-75
2023/12/02 06:46:39;;;;;;;1.95;1.85;;;;;;;7.36;100.00;99603.16;5006303;28;20026;-77
2023/12/02 06:49:04;;;;;;;0.77;0.57;;;;;;;7.39;100.00;99597.06;4998909;28;20502;-80
2023/12/02 06:51:30;;;;;;;3.25;3.05;;;;;;;6.92;100.00;99511.84;4998819;28;20057;-76
2023/12/02 06:53:56;;;;;;;1.55;1.27;;;;;;;7.22;100.00;99578.81;5004937;28;20061;-78
2023/12/02 06:56:23;;;;;;;0.40;0.40;;;;;;;7.57;100.00;99633.59;5002916;28;20444;-76
2023/12/02 06:58:50;;;;;;;6.03;5.70;;;;;;;7.28;100.00;99544.91;5004567;28;20025;-75
2023/12/02 07:01:42;;;;;;;0.70;0.70;;;;;;;8.08;100.00;99630.94;4998078;28;20050;-77
2023/12/02 07:04:08;;;;;;;6.95;5.63;;;;;;;7.41;100.00;99501.38;4999769;28;20142;-75
2023/12/02 07:06:33;;;;;;;1.75;1.65;;;;;;;7.85;100.00;99547.41;5003548;28;20124;-76
2023/12/02 07:08:59;;;;;;;3.55;3.35;;;;;;;8.17;100.00;99609.09;5001165;28;20046;-78
2023/12/02 07:11:24;;;;;;;4.32;4.13;;;;;;;7.55;100.00;99512.66;4993470;28;20417;-76
2023/12/02 07:13:50;;;;;;;0.30;0.30;;;;;;;7.58;100.00;99517.00;5001700;28;20069;-75
2023/12/02 07:16:17;;;;;;;4.10;3.90;;;;;;;7.70;100.00;99536.97;4986055;28;20133;-76
2023/12/02 07:18:42;;;;;;;0.70;0.70;;;;;;;8.38;100.00;99642.13;4995652;28;20049;-76
2023/12/02 07:21:09;;;;;;;1.08;1.08;;;;;;;8.40;100.00;99640.44;5000001;28;20053;-75
2023/12/02 07:23:34;;;;;;;1.67;1.58;;;;;;;7.94;100.00;99552.59;5010878;28;20045;-77
2023/12/02 07:26:00;;;;;;;3.80;3.60;;;;;;;8.61;100.00;99653.41;5005230;28;20045;-78
2023/12/02 07:28:26;;;;;;;0.63;0.63;;;;;;;8.10;100.00;99547.28;5004314;28;20541;-76
2023/12/02 07:30:54;;;;;;;0.60;0.50;;;;;;;8.63;100.00;99607.19;5003158;28;20045;-77
2023/12/02 07:33:20;;;;;;;0.35;0.35;;;;;;;8.77;100.00;99596.66;4998050;28;20034;-75
2023/12/02 07:35:45;;;;;;;5.78;5.35;;;;;;;9.22;100.00;99643.47;5004960;28;20045;-75
2023/12/02 07:38:11;;;;;;;0.85;0.85;;;;;;;9.03;100.00;99593.03;4997662;28;20092;-75
2023/12/02 07:40:36;;;;;;;1.75;1.65;;;;;;;9.13;100.00;99599.94;5004780;28;20081;-76
2023/12/02 07:43:02;;;;;;;1.50;1.40;;;;;;;8.92;100.00;99559.09;5003555;28;20050;-77
2023/12/02 07:45:28;;;;;;;2.22;2.08;;;;;;;9.13;100.00;99562.41;5001757;28;20049;-75
2023/12/02 07:47:54;;;;;;;8.50;7.97;;;;;;;9.08;100.00;99531.03;5003286;28;20057;-77
2023/12/02 07:50:21;;;;;;;6.80;5.50;;;;;;;9.01;100.00;99501.47;5006385;28;20877;-78
2023/12/02 07:52:46;;;;;;;1.70;1.60;;;;;;;9.93;100.00;99641.16;5006960;28;20041;-80
2023/12/02 07:55:13;;;;;;;1.67;1.58;;;;;;;9.64;100.00;99550.59;4993744;28;20046;-81
2023/12/02 07:57:39;;;;;;;5.63;5.25;;;;;;;10.07;100.00;99592.06;4991002;28;20160;-79
2023/12/02 08:00:05;;;;;;;0.40;0.40;;;;;;;9.78;100.00;99505.06;4989201;28;20149;-78
2023/12/02 08:02:30;;;;;;;3.53;3.30;;;;;;;10.09;100.00;99534.38;4993689;28;20096;-79
2023/12/02 08:04:57;;;;;;;4.95;4.53;;;;;;;10.54;100.00;99580.16;4992615;28;20045;-77
2023/12/02 08:07:24;;;;;;;1.95;1.85;;;;;;;10.34;100.00;99499.13;4995718;28;20054;-79
2023/12/02 08:09:49;;;;;;;2.72;1.40;;;;;;;10.56;100.00;99491.84;4993473;28;20041;-77
2023/12/02 08:12:15;;;;;;;6.32;1.00;;;;;;;11.25;100.00;99573.88;4995835;28;20053;-77
2023/12/02 08:14:41;;;;;;;5.57;5.05;;;;;;;11.24;100.00;99526.63;4999888;28;20148;-75
2023/12/02 08:17:07;;;;;;;0.52;0.52;;;;;;;11.16;100.00;99497.88;4999235;28;20052;-79
2023/12/02 08:19:35;;;;;;;5.97;5.53;;;;;;;11.40;100.00;99491.31;4993419;28;20034;-77
2023/12/02 08:22:01;;;;;;;7.72;6.50;;;;;;;12.08;100.00;99572.44;5001065;28;20084;-82
2023/12/02 08:24:26;;;;;;;1.27;1.20;;;;;;;12.22;100.00;99570.38;5001088;28;20425;-76
2023/12/02 08:27:04;;;;;;;1.30;1.20;;;;;;;12.45;100.00;99561.13;5003294;28;20067;-81
2023/12/02 08:29:29;;;;;;;5.40;3.92;;;;;;;12.26;100.00;99508.03;4997600;28;20128;-79
2023/12/02 08:31:55;;;;;;;6.60;5.60;;;;;;;12.20;100.00;99468.75;5004461;28;20693;-74
2023/12/02 08:34:21;;;;;;;1.40;1.05;;;;;;;12.77;100.00;99531.47;5002698;28;20799;-78
2023/12/02 08:36:46;;;;;;;2.65;2.45;;;;;;;12.98;100.00;99539.78;5004168;28;20115;-78
2023/12/02 08:39:13;;;;;;;4.65;3.92;;;;;;;12.35;100.00;99428.06;4999964;28;20088;-78
2023/12/02 08:41:38;;;;;;;2.45;1.63;;;;;;;12.78;100.00;99506.00;5004894;28;20054;-78
2023/12/02 08:44:04;;;;;;;5.43;4.93;;;;;;;12.94;100.00;99503.88;5003733;28;20030;-79
2023/12/02 08:46:29;;;;;;;2.17;2.08;;;;;;;12.61;100.00;99422.19;5003888;28;20486;-78
2023/12/02 08:48:55;;;;;;;4.93;4.43;;;;;;;12.77;100.00;99441.09;4996871;28;20046;-78
2023/12/02 08:51:21;;;;;;;4.38;3.65;;;;;;;13.09;100.00;99483.28;4998331;28;20042;-80
2023/12/02 08:53:49;;;;;;;1.52;1.40;;;;;;;13.11;100.00;99464.81;4999443;28;20060;-77
2023/12/02 08:56:15;;;;;;;3.88;3.47;;;;;;;13.07;100.00;99447.38;4993647;28;20030;-77
2023/12/02 08:58:40;;;;;;;2.05;1.88;;;;;;;13.47;100.00;99502.53;5005172;28;20120;-76
2023/12/02 09:01:06;;;;;;;4.45;3.28;;;;;;;12.89;100.00;99398.66;5002068;28;20135;-77
2023/12/02 09:03:32;;;;;;;4.28;2.70;;;;;;;13.59;100.00;99508.41;4991814;28;20548;-76
2023/12/02 09:05:57;;;;;;;3.67;3.38;;;;;;;13.30;100.00;99459.97;4989976;28;20446;-77
2023/12/02 09:08:23;;;;;;;4.95;4.50;;;;;;;13.50;100.00;99473.47;4982572;28;20050;-75
2023/12/02 09:10:49;;;;;;;2.47;2.22;;;;;;;13.66;100.00;99484.44;4990585;28;20038;-78
2023/12/02 09:13:36;;;;;;;3.72;3.42;;;;;;;13.63;100.00;99476.63;5002625;28;20045;-77
2023/12/02 09:16:02;;;;;;;5.63;2.13;;;;;;;13.59;100.00;99471.50;5002351;28;20107;-78
2023/12/02 09:18:37;;;;;;;3.65;3.35;;;;;;;13.45;100.00;99429.69;4997408;28;20041;-78
2023/12/02 09:21:04;;;;;;;6.03;2.85;;;;;;;13.55;100.00;99443.47;4999421;28;20065;-78
2023/12/02 09:23:31;;;;;;;2.42;2.22;;;;;;;13.66;100.00;99455.47;4996729;28;20054;-78
2023/12/02 09:26:02;;;;;;;3.00;2.53;;;;;;;13.68;100.00;99443.09;5005452;28;20141;-77
2023/12/02 09:28:29;;;;;;;9.13;6.28;;;;;;;13.28;100.00;99394.13;5001742;28;20197;-76
2023/12/02 09:30:56;;;;;;;4.25;3.85;;;;;;;13.07;100.00;99379.75;5001866;28;20069;-78
2023/12/02 09:33:21;;;;;;;6.30;4.68;;;;;;;13.60;100.00;99454.75;5002232;28;20096;-78
2023/12/02 09:35:53;;;;;;;2.00;1.90;;;;;;;13.18;100.00;99382.09;4998743;28;20049;-76
2023/12/02 09:38:19;;;;;;;6.45;3.53;;;;;;;12.92;100.00;99324.84;4999090;28;20039;-76
2023/12/02 09:41:09;;;;;;;5.47;4.00;;;;;;;13.16;100.00;99381.28;5001211;28;20030;-79
2023/12/02 09:43:40;;;;;;;3.40;2.72;;;;;;;13.65;100.00;99439.66;5001963;28;20052;-78
2023/12/02 09:46:26;;;;;;;3.03;2.75;;;;;;;13.70;100.00;99430.75;5006212;28;20528;-80
2023/12/02 09:49:00;;;;;;;5.78;4.82;;;;;;;13.62;100.00;99387.91;5009787;28;20053;-75
2023/12/02 09:51:50;;;;;;;4.57;2.25;;;;;;;13.05;100.00;99293.78;4998371;28;20054;-78
2023/12/02 09:54:37;;;;;;;6.10;5.07;;;;;;;13.01;100.00;99355.34;5004664;28;20064;-76
2023/12/02 09:57:15;;;;;;;8.75;3.40;;;;;;;13.36;100.00;99458.94;4997542;28;20058;-80
2023/12/02 10:00:15;;;;;;;1.95;1.17;;;;;;;13.46;100.00;99465.69;4987109;28;20053;-77
2023/12/02 10:03:02;;;;;;;1.85;1.73;;;;;;;13.52;100.00;99489.25;5000579;28;20129;-77
2023/12/02 10:05:36;;;;;;;2.85;2.03;;;;;;;13.12;100.00;99415.66;4994779;28;20557;-78
2023/12/02 10:08:26;;;;;;;5.90;2.53;;;;;;;12.95;100.00;99368.69;4987042;28;20065;-79
2023/12/02 10:11:04;;;;;;;15.68;3.67;;;;;;;13.64;100.00;99451.13;5003475;28;20058;-80
2023/12/02 10:13:48;;;;;;;2.95;2.28;;;;;;;13.65;100.00;99456.38;5019013;28;20794;-81
2023/12/02 10:16:18;;;;;;;10.60;5.63;;;;;;;13.27;100.00;99389.78;5026365;28;20501;-79
2023/12/02 10:18:57;;;;;;;5.78;4.05;;;;;;;13.43;100.00;99426.25;4996308;28;20081;-78
2023/12/02 10:21:27;;;;;;;4.55;4.25;;;;;;;13.66;100.00;99438.78;4992125;28;20049;-78
2023/12/02 10:24:08;;;;;;;4.03;2.45;;;;;;;13.01;100.00;99340.41;4997820;28;20447;-79
2023/12/02 10:26:58;;;;;;;4.18;3.78;;;;;;;13.16;100.00;99354.06;4999514;28;20413;-80
2023/12/02 10:29:45;;;;;;;4.40;3.70;;;;;;;13.64;100.00;99427.41;5001024;28;20140;-79
2023/12/02 10:32:49;;;;;;;4.38;3.75;;;;;;;13.60;100.00;99413.47;5003654;28;20037;-78
2023/12/02 10:35:28;;;;;;;4.88;3.95;;;;;;;13.20;100.00;99330.22;4994570;28;20038;-78
2023/12/02 10:38:09;;;;;;;3.05;2.70;;;;;;;12.99;100.00;99293.94;5011428;28;20151;-79
2023/12/02 10:40:35;;;;;;;3.72;2.83;;;;;;;13.06;100.00;99283.22;5007607;28;20070;-81
2023/12/02 10:43:37;;;;;;;7.22;4.82;;;;;;;13.88;100.00;99410.91;5001776;28;20086;-81
2023/12/02 10:46:04;;;;;;;2.53;1.95;;;;;;;13.12;100.00;99313.78;4998407;28;20073;-78
2023/12/02 10:48:31;;;;;;;7.82;2.25;;;;;;;13.28;100.00;99303.72;4995111;28;20129;-80
2023/12/02 10:51:00;;;;;;;2.13;1.90;;;;;;;13.43;100.00;99323.47;4999224;28;20078;-82
2023/12/02 10:53:29;;;;;;;3.65;3.28;;;;;;;13.62;100.00;99360.69;4992587;28;20200;-79
2023/12/02 10:56:00;;;;;;;2.75;1.75;;;;;;;13.37;100.00;99316.63;5026431;28;20041;-77
2023/12/02 10:58:30;;;;;;;5.15;4.57;;;;;;;13.33;100.00;99296.53;5000450;28;20605;-77
2023/12/02 11:01:04;;;;;;;5.07;2.97;;;;;;;13.54;100.00;99331.94;5001296;28;20056;-76
2023/12/02 11:03:51;;;;;;;4.20;3.60;;;;;;;13.47;100.00;99317.22;4992305;28;20629;-76
2023/12/02 11:06:36;;;;;;;6.45;4.72;;;;;;;13.75;100.00;99371.75;4998073;28;20066;-78
2023/12/02 11:09:32;;;;;;;3.33;3.03;;;;;;;14.06;100.00;99392.78;4978802;28;20068;-80
2023/12/02 11:14:24;;;;;;;3.65;3.10;;;;;;;13.83;100.00;99367.94;5047588;27;1439605;-74
2023/12/02 11:17:08;;;;;;;8.40;4.93;;;;;;;14.08;100.00;99425.25;5051842;28;20033;-75
2023/12/02 11:19:42;;;;;;;3.30;2.97;;;;;;;14.04;100.00;99428.88;5046724;28;20084;-77
2023/12/02 11:22:24;;;;;;;2.40;1.88;;;;;;;12.87;100.00;99242.50;5050801;28;20059;-82
2023/12/02 11:24:59;;;;;;;11.95;8.18;;;;;;;13.91;100.00;99417.84;5051595;28;20037;-73
2023/12/02 11:27:27;;;;;;;9.32;4.40;;;;;;;13.90;100.00;99395.00;5053344;28;20085;-72
2023/12/02 11:30:23;;;;;;;3.08;2.20;;;;;;;13.88;100.00;99386.28;5050042;28;20782;-74
2023/12/02 11:32:52;;;;;;;3.85;3.20;;;;;;;13.41;100.00;99289.25;5050488;28;20060;-77
2023/12/02 11:35:33;;;;;;;5.82;3.83;;;;;;;13.41;100.00;99277.84;5054161;28;20488;-78
2023/12/02 11:38:11;;;;;;;3.95;3.65;;;;;;;13.94;100.00;99380.81;5050388;28;20098;-78